createdAt,value
2022-09-12T00:01:13.450Z,44.04
2022-09-12T00:03:41.160Z,43.93
2022-09-12T00:06:10.273Z,44.16
2022-09-12T00:08:38.844Z,44.17
2022-09-12T00:11:08.698Z,43.83
2022-09-12T00:13:41.350Z,44.18
2022-09-12T00:16:14.973Z,44.13
2022-09-12T00:18:42.393Z,43.96
2022-09-12T00:21:09.501Z,44.05
2022-09-12T00:23:38.013Z,44.00
2022-09-12T00:26:06.717Z,43.96
2022-09-12T00:28:35.449Z,44.00
2022-09-12T00:31:05.014Z,44.29
2022-09-12T00:33:32.986Z,43.82
2022-09-12T00:36:00.269Z,43.76
2022-09-12T00:38:27.377Z,44.24
2022-09-12T00:40:56.114Z,43.73
2022-09-12T00:43:42.022Z,44.00
2022-09-12T00:46:17.537Z,43.78
2022-09-12T00:48:49.882Z,44.05
2022-09-12T00:51:18.940Z,44.06
2022-09-12T00:53:48.673Z,43.79
2022-09-12T00:56:19.444Z,43.75
2022-09-12T00:58:54.069Z,43.86
2022-09-12T01:01:21.386Z,44.01
2022-09-12T01:03:48.527Z,44.04
2022-09-12T01:06:20.769Z,44.04
2022-09-12T01:08:49.540Z,44.23
2022-09-12T01:11:20.569Z,44.05
2022-09-12T01:13:48.866Z,44.37
2022-09-12T01:16:16.402Z,44.37
2022-09-12T01:19:08.887Z,44.01
2022-09-12T01:21:43.603Z,44.14
2022-09-12T01:24:34.775Z,44.19
2022-09-12T01:27:27.186Z,44.19
2022-09-12T01:30:24.538Z,44.22
2022-09-12T01:33:25.058Z,44.34
2022-09-12T01:36:04.681Z,44.22
2022-09-12T01:38:38.563Z,44.29
2022-09-12T01:41:10.923Z,44.10
2022-09-12T01:43:47.094Z,44.37
2022-09-12T01:46:17.411Z,44.30
2022-09-12T01:48:50.982Z,44.13
2022-09-12T01:51:23.329Z,43.83
2022-09-12T01:53:54.141Z,44.03
2022-09-12T01:56:25.934Z,44.19
2022-09-12T01:58:59.206Z,43.93
2022-09-12T02:01:28.933Z,44.34
2022-09-12T02:04:04.881Z,44.14
2022-09-12T02:06:37.620Z,43.96
2022-09-12T02:09:09.144Z,44.08
2022-09-12T02:11:41.569Z,44.00
2022-09-12T02:14:14.452Z,44.06
2022-09-12T02:16:45.682Z,44.11
2022-09-12T02:19:17.201Z,44.28
2022-09-12T02:21:49.859Z,43.91
2022-09-12T02:24:17.642Z,43.77
2022-09-12T02:26:50.865Z,44.08
2022-09-12T02:29:18.113Z,43.82
2022-09-12T02:31:47.102Z,43.96
2022-09-12T02:34:28.886Z,43.96
2022-09-12T02:37:05.444Z,43.95
2022-09-12T02:39:32.898Z,43.84
2022-09-12T02:42:02.754Z,44.18
2022-09-12T02:44:31.646Z,43.74
2022-09-12T02:47:04.180Z,44.06
2022-09-12T02:49:33.039Z,43.89
2022-09-12T02:52:02.057Z,43.92
2022-09-12T02:54:31.013Z,44.06
2022-09-12T02:56:58.122Z,43.79
2022-09-12T02:59:25.928Z,44.21
2022-09-12T03:02:06.768Z,43.85
2022-09-12T03:04:53.465Z,44.00
2022-09-12T03:07:34.742Z,43.98
2022-09-12T03:10:10.350Z,44.04
2022-09-12T03:12:47.384Z,44.25
2022-09-12T03:15:26.839Z,44.15
2022-09-12T03:18:04.465Z,44.05
2022-09-12T03:20:44.890Z,43.64
2022-09-12T03:23:22.354Z,43.93
2022-09-12T03:25:54.521Z,43.71
2022-09-12T03:28:22.965Z,43.94
2022-09-12T03:30:51.359Z,43.87
2022-09-12T03:33:20.037Z,43.99
2022-09-12T03:35:49.110Z,43.74
2022-09-12T03:38:16.240Z,43.58
2022-09-12T03:40:43.608Z,43.77
2022-09-12T03:43:11.081Z,43.88
2022-09-12T03:45:38.575Z,44.16
2022-09-12T03:48:06.708Z,44.04
2022-09-12T03:50:34.033Z,43.97
2022-09-12T03:53:03.260Z,44.10
2022-09-12T03:55:30.417Z,44.06
2022-09-12T03:57:57.511Z,43.63
2022-09-12T04:00:24.968Z,43.58
2022-09-12T04:02:55.762Z,43.67
2022-09-12T04:05:23.353Z,43.71
2022-09-12T04:07:50.941Z,43.63
2022-09-12T04:10:19.405Z,43.75
2022-09-12T04:12:46.713Z,43.86
2022-09-12T04:15:14.251Z,43.51
2022-09-12T04:17:41.444Z,43.62
2022-09-12T04:20:09.132Z,43.57
2022-09-12T04:22:36.257Z,43.87
2022-09-12T04:25:04.576Z,43.98
2022-09-12T04:27:33.499Z,43.75
2022-09-12T04:30:00.939Z,43.58
2022-09-12T04:32:29.826Z,43.91
2022-09-12T04:34:57.115Z,43.90
2022-09-12T04:37:24.417Z,43.86
2022-09-12T04:39:51.619Z,43.56
2022-09-12T04:42:18.716Z,43.61
2022-09-12T04:44:48.268Z,43.78
2022-09-12T04:47:15.385Z,43.55
2022-09-12T04:49:42.470Z,43.76
2022-09-12T04:52:09.564Z,43.87
2022-09-12T04:54:37.294Z,43.92
2022-09-12T04:57:04.565Z,43.89
2022-09-12T04:59:31.705Z,44.03
2022-09-12T05:02:00.170Z,43.76
2022-09-12T05:04:27.321Z,43.54
2022-09-12T05:06:54.405Z,43.99
2022-09-12T05:09:21.498Z,43.68
2022-09-12T05:12:05.248Z,44.04
2022-09-12T05:14:33.163Z,43.70
2022-09-12T05:17:02.800Z,44.00
2022-09-12T05:19:31.060Z,43.65
2022-09-12T05:21:58.277Z,44.01
2022-09-12T05:24:25.478Z,43.63
2022-09-12T05:26:52.577Z,43.78
2022-09-12T05:29:19.678Z,43.66
2022-09-12T05:31:46.980Z,43.86
2022-09-12T05:34:15.398Z,44.07
2022-09-12T05:36:42.487Z,43.91
2022-09-12T05:39:09.590Z,43.65
2022-09-12T05:41:36.702Z,44.15
2022-09-12T05:44:06.026Z,43.73
2022-09-12T05:46:41.091Z,43.62
2022-09-12T05:49:10.270Z,44.31
2022-09-12T05:51:41.711Z,43.71
2022-09-12T05:54:11.079Z,43.77
2022-09-12T05:56:40.072Z,44.23
2022-09-12T05:59:11.146Z,44.31
2022-09-12T06:01:38.559Z,44.26
2022-09-12T06:04:06.840Z,43.79
2022-09-12T06:06:36.795Z,43.78
2022-09-12T06:09:06.238Z,43.78
2022-09-12T06:11:35.428Z,44.14
2022-09-12T06:14:02.899Z,44.24
2022-09-12T06:16:31.283Z,44.49
2022-09-12T06:19:01.344Z,44.37
2022-09-12T06:21:29.704Z,44.36
2022-09-12T06:23:57.938Z,44.61
2022-09-12T06:26:28.020Z,45.13
2022-09-12T06:28:56.610Z,45.59
2022-09-12T06:31:25.770Z,45.41
2022-09-12T06:33:54.377Z,49.06
2022-09-12T06:36:23.446Z,46.30
2022-09-12T06:38:55.101Z,45.92
2022-09-12T06:41:22.518Z,45.85
2022-09-12T06:43:51.230Z,45.71
2022-09-12T06:46:18.361Z,45.71
2022-09-12T06:48:45.792Z,45.39
2022-09-12T06:51:15.507Z,45.53
2022-09-12T06:53:43.462Z,45.14
2022-09-12T06:56:12.283Z,45.35
2022-09-12T06:58:40.219Z,45.64
2022-09-12T07:01:10.632Z,45.19
2022-09-12T07:03:38.635Z,45.42
2022-09-12T07:06:08.231Z,45.79
2022-09-12T07:08:35.691Z,45.39
2022-09-12T07:11:09.858Z,45.15
2022-09-12T07:13:36.960Z,45.88
2022-09-12T07:16:05.171Z,44.84
2022-09-12T07:18:34.676Z,44.15
2022-09-12T07:21:02.176Z,44.02
2022-09-12T07:23:29.861Z,43.99
2022-09-12T07:25:58.783Z,43.64
2022-09-12T07:28:27.467Z,43.24
2022-09-12T07:30:54.717Z,45.54
2022-09-12T07:33:22.802Z,45.01
2022-09-12T07:35:51.290Z,43.92
2022-09-12T07:38:18.417Z,43.48
2022-09-12T07:40:45.521Z,43.30
2022-09-12T07:43:12.993Z,43.48
2022-09-12T07:45:40.206Z,43.39
2022-09-12T07:48:07.628Z,43.42
2022-09-12T07:50:35.604Z,43.95
2022-09-12T07:53:04.558Z,43.81
2022-09-12T07:55:32.664Z,44.09
2022-09-12T07:57:59.784Z,45.79
2022-09-12T08:00:26.874Z,45.74
2022-09-12T08:02:54.302Z,45.15
2022-09-12T08:05:21.472Z,45.22
2022-09-12T08:07:48.623Z,44.85
2022-09-12T08:10:17.316Z,44.78
2022-09-12T08:12:44.422Z,44.73
2022-09-12T08:15:11.526Z,44.59
2022-09-12T08:17:38.606Z,44.23
2022-09-12T08:20:06.543Z,44.45
2022-09-12T08:22:33.632Z,44.68
2022-09-12T08:25:00.734Z,44.29
2022-09-12T08:27:29.420Z,44.10
2022-09-12T08:29:56.528Z,45.14
2022-09-12T08:32:23.623Z,44.27
2022-09-12T08:34:50.729Z,44.46
2022-09-12T08:37:17.921Z,44.87
2022-09-12T08:39:45.054Z,45.63
2022-09-12T08:42:24.997Z,45.86
2022-09-12T08:45:08.891Z,46.16
2022-09-12T08:47:38.427Z,46.62
2022-09-12T08:50:13.833Z,46.54
2022-09-12T08:52:48.107Z,47.27
2022-09-12T08:55:25.695Z,48.98
2022-09-12T08:57:53.664Z,47.63
2022-09-12T09:00:22.304Z,51.12
2022-09-12T09:03:23.093Z,49.02
2022-09-12T09:05:56.010Z,48.20
2022-09-12T09:08:50.317Z,49.10
2022-09-12T09:11:32.706Z,56.19
2022-09-12T09:14:16.978Z,48.80
2022-09-12T09:16:46.837Z,48.43
2022-09-12T09:19:18.690Z,48.54
2022-09-12T09:21:51.450Z,48.35
2022-09-12T09:24:21.810Z,48.05
2022-09-12T09:26:55.038Z,47.81
2022-09-12T09:29:27.038Z,47.79
2022-09-12T09:31:59.524Z,47.20
2022-09-12T09:34:30.812Z,47.26
2022-09-12T09:37:06.385Z,46.92
2022-09-12T09:39:52.760Z,46.68
2022-09-12T09:42:32.455Z,46.50
2022-09-12T09:45:03.325Z,46.26
2022-09-12T09:47:31.864Z,46.46
2022-09-12T09:49:58.978Z,46.43
2022-09-12T09:52:29.358Z,46.62
2022-09-12T09:54:59.457Z,46.25
2022-09-12T09:57:41.690Z,46.35
2022-09-12T10:00:22.878Z,46.05
2022-09-12T10:03:22.639Z,46.29
2022-09-12T10:05:53.154Z,45.96
2022-09-12T10:08:22.495Z,45.93
2022-09-12T10:11:01.346Z,45.92
2022-09-12T10:13:34.613Z,45.98
2022-09-12T10:16:04.777Z,45.65
2022-09-12T10:18:38.267Z,45.99
2022-09-12T10:21:32.216Z,45.82
2022-09-12T10:24:03.873Z,45.79
2022-09-12T10:26:39.780Z,45.86
2022-09-12T10:29:15.506Z,45.59
2022-09-12T10:31:46.123Z,45.75
2022-09-12T10:34:23.785Z,45.76
2022-09-12T10:36:58.916Z,45.46
2022-09-12T10:39:26.808Z,45.76
2022-09-12T10:41:54.140Z,45.51
2022-09-12T10:44:25.875Z,45.52
2022-09-12T10:46:53.194Z,45.42
2022-09-12T10:49:26.839Z,45.50
2022-09-12T10:51:57.244Z,45.85
2022-09-12T10:54:26.742Z,45.37
2022-09-12T10:57:22.003Z,45.48
2022-09-12T11:00:02.513Z,45.66
2022-09-12T11:02:34.883Z,45.61
2022-09-12T11:05:09.283Z,45.45
2022-09-12T11:07:43.371Z,45.42
2022-09-12T11:10:24.330Z,45.37
2022-09-12T11:12:58.138Z,45.57
2022-09-12T11:15:46.045Z,45.40
2022-09-12T11:18:25.002Z,45.23
2022-09-12T11:21:13.466Z,45.44
2022-09-12T11:24:02.511Z,45.44
2022-09-12T11:26:47.633Z,45.47
2022-09-12T11:29:28.623Z,45.75
2022-09-12T11:32:11.293Z,45.78
2022-09-12T11:34:48.428Z,45.86
2022-09-12T11:37:32.773Z,45.41
2022-09-12T11:40:11.298Z,45.33
2022-09-12T11:42:40.224Z,45.16
2022-09-12T11:45:15.620Z,45.30
2022-09-12T11:47:46.683Z,45.14
2022-09-12T11:50:21.196Z,45.56
2022-09-12T11:52:49.570Z,45.33
2022-09-12T11:55:21.375Z,45.41
2022-09-12T11:57:52.741Z,45.40
2022-09-12T12:00:22.034Z,45.60
2022-09-12T12:03:07.285Z,45.40
2022-09-12T12:05:42.170Z,45.26
2022-09-12T12:08:11.246Z,45.52
2022-09-12T12:10:42.151Z,45.18
2022-09-12T12:13:17.949Z,45.17
2022-09-12T12:15:47.830Z,44.97
2022-09-12T12:18:18.908Z,45.08
2022-09-12T12:20:46.349Z,44.84
2022-09-12T12:23:24.133Z,45.09
2022-09-12T12:25:54.933Z,44.97
2022-09-12T12:29:01.548Z,44.94
2022-09-12T12:31:28.747Z,45.09
2022-09-12T12:34:26.922Z,45.03
2022-09-12T12:36:54.030Z,44.79
2022-09-12T12:39:59.792Z,44.84
2022-09-12T12:43:00.203Z,44.38
2022-09-12T12:46:09.634Z,44.24
2022-09-12T12:49:05.855Z,44.49
2022-09-12T12:51:58.681Z,44.48
2022-09-12T12:54:51.703Z,44.12
2022-09-12T12:57:29.931Z,44.37
2022-09-12T13:00:01.799Z,44.17
2022-09-12T13:02:35.022Z,44.47
2022-09-12T13:05:05.111Z,44.17
2022-09-12T13:07:35.872Z,44.23
2022-09-12T13:10:06.192Z,44.28
2022-09-12T13:12:37.694Z,44.29
2022-09-12T13:15:29.608Z,44.45
2022-09-12T13:18:01.937Z,44.29
2022-09-12T13:20:31.619Z,44.38
2022-09-12T13:22:58.968Z,44.42
2022-09-12T13:25:30.678Z,43.96
2022-09-12T13:28:00.255Z,44.20
2022-09-12T13:30:28.439Z,44.05
2022-09-12T13:33:02.408Z,44.21
2022-09-12T13:35:35.711Z,44.12
2022-09-12T13:38:10.691Z,44.09
2022-09-12T13:40:47.854Z,43.85
2022-09-12T13:43:17.290Z,44.73
2022-09-12T13:45:46.848Z,45.14
2022-09-12T13:48:19.557Z,44.93
2022-09-12T13:50:52.805Z,45.05
2022-09-12T13:53:22.165Z,45.11
2022-09-12T13:55:53.219Z,44.95
2022-09-12T13:58:22.628Z,44.97
2022-09-12T14:01:05.542Z,45.53
2022-09-12T14:03:39.136Z,44.42
2022-09-12T14:06:06.670Z,42.64
2022-09-12T14:08:33.864Z,43.32
2022-09-12T14:11:07.773Z,42.97
2022-09-12T14:13:34.751Z,42.08
2022-09-12T14:16:02.608Z,41.40
2022-09-12T14:18:31.691Z,40.90
2022-09-12T14:21:08.869Z,40.67
2022-09-12T14:23:39.756Z,40.21
2022-09-12T14:26:10.901Z,39.98
2022-09-12T14:28:40.567Z,40.41
2022-09-12T14:31:22.381Z,40.04
2022-09-12T14:33:51.813Z,40.16
2022-09-12T14:36:24.371Z,39.70
2022-09-12T14:38:54.175Z,39.99
2022-09-12T14:41:25.041Z,39.41
2022-09-12T14:43:55.154Z,39.55
2022-09-12T14:46:25.765Z,40.13
2022-09-12T14:48:55.953Z,40.23
2022-09-12T14:51:27.882Z,38.95
2022-09-12T14:53:55.046Z,38.73
2022-09-12T14:56:36.927Z,39.44
2022-09-12T14:59:27.332Z,38.63
2022-09-12T15:02:23.033Z,38.13
2022-09-12T15:04:51.678Z,38.71
2022-09-12T15:07:30.805Z,38.49
2022-09-12T15:09:59.244Z,38.85
2022-09-12T15:12:27.106Z,39.00
2022-09-12T15:14:58.648Z,38.65
2022-09-12T15:17:25.758Z,38.76
2022-09-12T15:19:52.844Z,38.46
2022-09-12T15:22:23.785Z,38.63
2022-09-12T15:24:50.871Z,38.80
2022-09-12T15:27:17.970Z,38.39
2022-09-12T15:29:45.064Z,38.45
2022-09-12T15:32:23.414Z,38.39
2022-09-12T15:34:50.628Z,38.09
2022-09-12T15:37:18.975Z,38.60
2022-09-12T15:39:47.923Z,38.56
2022-09-12T15:42:15.861Z,38.29
2022-09-12T15:44:43.349Z,38.78
2022-09-12T15:47:12.914Z,38.90
2022-09-12T15:49:40.406Z,39.07
2022-09-12T15:52:13.006Z,38.95
2022-09-12T15:54:40.081Z,38.68
2022-09-12T15:57:08.569Z,38.37
2022-09-12T15:59:36.313Z,38.27
2022-09-12T16:02:03.755Z,38.74
2022-09-12T16:04:31.010Z,38.24
2022-09-12T16:06:58.079Z,38.16
2022-09-12T16:09:25.297Z,38.61
2022-09-12T16:11:52.383Z,38.59
2022-09-12T16:14:20.803Z,38.75
2022-09-12T16:16:52.475Z,38.29
2022-09-12T16:19:19.701Z,38.50
2022-09-12T16:21:46.970Z,38.64
2022-09-12T16:24:14.098Z,38.23
2022-09-12T16:26:41.215Z,37.75
2022-09-12T16:29:10.461Z,37.78
2022-09-12T16:31:38.962Z,37.59
2022-09-12T16:34:06.312Z,38.06
2022-09-12T16:36:33.617Z,38.19
2022-09-12T16:39:00.728Z,37.86
2022-09-12T16:41:27.846Z,37.96
2022-09-12T16:43:55.209Z,38.16
2022-09-12T16:46:23.878Z,37.62
2022-09-12T16:48:54.365Z,37.64
2022-09-12T16:51:23.587Z,37.88
2022-09-12T16:53:50.932Z,37.84
2022-09-12T16:56:18.670Z,37.71
2022-09-12T16:58:46.193Z,37.83
2022-09-12T17:01:15.624Z,38.08
2022-09-12T17:03:43.385Z,38.13
2022-09-12T17:06:13.870Z,38.00
2022-09-12T17:08:42.882Z,37.96
2022-09-12T17:11:11.967Z,38.07
2022-09-12T17:14:02.665Z,37.95
2022-09-12T17:16:27.501Z,38.43
2022-09-12T17:18:55.236Z,38.32
2022-09-12T17:21:23.681Z,38.62
2022-09-12T17:23:50.970Z,38.93
2022-09-12T17:26:18.160Z,39.03
2022-09-12T17:28:45.328Z,39.67
2022-09-12T17:31:13.977Z,40.06
2022-09-12T17:33:42.073Z,40.64
2022-09-12T17:36:11.902Z,41.61
2022-09-12T17:38:41.289Z,46.97
2022-09-12T17:41:10.402Z,43.94
2022-09-12T17:43:37.556Z,41.01
2022-09-12T17:46:05.326Z,40.56
2022-09-12T17:48:32.445Z,40.97
2022-09-12T17:51:06.940Z,41.34
2022-09-12T17:53:34.065Z,41.50
2022-09-12T17:56:02.978Z,41.58
2022-09-12T17:58:30.460Z,41.59
2022-09-12T18:01:01.404Z,42.11
2022-09-12T18:03:28.504Z,42.27
2022-09-12T18:05:56.447Z,42.22
2022-09-12T18:08:24.420Z,42.73
2022-09-12T18:10:51.898Z,43.12
2022-09-12T18:13:20.384Z,44.03
2022-09-12T18:15:47.582Z,43.89
2022-09-12T18:18:14.671Z,47.67
2022-09-12T18:20:49.933Z,45.16
2022-09-12T18:23:17.009Z,44.43
2022-09-12T18:25:44.100Z,45.49
2022-09-12T18:28:11.183Z,43.43
2022-09-12T18:30:40.656Z,42.74
2022-09-12T18:33:07.760Z,42.65
2022-09-12T18:35:37.621Z,42.26
2022-09-12T18:38:04.756Z,42.04
2022-09-12T18:40:31.846Z,41.88
2022-09-12T18:42:58.926Z,41.95
2022-09-12T18:45:27.357Z,41.60
2022-09-12T18:47:56.129Z,41.64
2022-09-12T18:50:23.647Z,41.37
2022-09-12T18:52:51.814Z,41.63
2022-09-12T18:55:19.030Z,41.42
2022-09-12T18:57:46.306Z,41.67
2022-09-12T19:00:14.159Z,41.69
2022-09-12T19:02:41.242Z,41.40
2022-09-12T19:05:10.329Z,41.36
2022-09-12T19:07:37.413Z,41.77
2022-09-12T19:10:05.180Z,41.52
2022-09-12T19:12:32.303Z,41.76
2022-09-12T19:14:59.490Z,42.24
2022-09-12T19:17:26.581Z,42.58
2022-09-12T19:19:53.679Z,42.14
2022-09-12T19:22:22.301Z,42.15
2022-09-12T19:24:49.424Z,42.04
2022-09-12T19:27:16.533Z,42.14
2022-09-12T19:29:43.608Z,42.37
2022-09-12T19:32:10.731Z,42.01
2022-09-12T19:34:38.273Z,42.21
2022-09-12T19:37:05.388Z,41.96
2022-09-12T19:39:33.898Z,42.21
2022-09-12T19:42:01.279Z,41.81
2022-09-12T19:44:30.293Z,41.92
2022-09-12T19:46:57.406Z,41.79
2022-09-12T19:49:24.490Z,41.99
2022-09-12T19:51:51.622Z,42.17
2022-09-12T19:54:18.689Z,42.04
2022-09-12T19:56:47.223Z,42.29
2022-09-12T19:59:14.323Z,42.41
2022-09-12T20:01:41.568Z,42.81
2022-09-12T20:04:08.737Z,42.62
2022-09-12T20:06:35.829Z,42.70
2022-09-12T20:09:03.021Z,42.54
2022-09-12T20:11:30.343Z,42.39
2022-09-12T20:13:58.768Z,42.50
2022-09-12T20:16:26.964Z,42.35
2022-09-12T20:18:56.043Z,42.77
2022-09-12T20:21:25.368Z,42.79
2022-09-12T20:23:52.641Z,42.62
2022-09-12T20:26:19.747Z,42.71
2022-09-12T20:28:47.263Z,42.83
2022-09-12T20:31:16.830Z,42.56
2022-09-12T20:33:47.534Z,42.78
2022-09-12T20:36:19.225Z,42.80
2022-09-12T20:38:51.033Z,42.87
2022-09-12T20:41:19.606Z,42.86
2022-09-12T20:43:49.423Z,42.93
2022-09-12T20:46:21.661Z,42.89
2022-09-12T20:48:49.929Z,43.06
2022-09-12T20:51:17.167Z,43.05
2022-09-12T20:53:44.274Z,43.20
2022-09-12T20:56:11.517Z,43.36
2022-09-12T20:58:43.523Z,43.46
2022-09-12T21:01:13.366Z,43.20
2022-09-12T21:03:42.970Z,43.34
2022-09-12T21:06:11.391Z,43.53
2022-09-12T21:08:38.823Z,43.21
2022-09-12T21:11:06.703Z,43.46
2022-09-12T21:13:33.972Z,43.41
2022-09-12T21:16:02.488Z,43.12
2022-09-12T21:18:30.556Z,43.13
2022-09-12T21:20:59.078Z,43.39
2022-09-12T21:23:27.411Z,43.48
2022-09-12T21:25:54.775Z,43.31
2022-09-12T21:28:22.359Z,43.48
2022-09-12T21:30:50.459Z,43.57
2022-09-12T21:33:19.081Z,43.47
2022-09-12T21:35:46.948Z,43.32
2022-09-12T21:38:16.336Z,43.31
2022-09-12T21:40:43.704Z,43.79
2022-09-12T21:43:12.971Z,43.61
2022-09-12T21:45:40.786Z,43.91
2022-09-12T21:48:08.109Z,43.64
2022-09-12T21:50:35.431Z,43.96
2022-09-12T21:53:02.652Z,43.95
2022-09-12T21:55:31.086Z,43.69
2022-09-12T21:57:58.276Z,44.06
2022-09-12T22:00:25.896Z,44.04
2022-09-12T22:02:52.993Z,43.75
2022-09-12T22:05:20.098Z,55.23
2022-09-12T22:07:47.206Z,47.62
2022-09-12T22:10:14.314Z,45.95
2022-09-12T22:12:46.026Z,45.16
2022-09-12T22:15:39.090Z,45.09
2022-09-12T22:18:01.424Z,45.14
2022-09-12T22:20:28.539Z,45.24
2022-09-12T22:22:55.601Z,45.29
2022-09-12T22:25:22.798Z,45.55
2022-09-12T22:27:51.580Z,45.42
2022-09-12T22:30:19.241Z,44.90
2022-09-12T22:32:46.403Z,45.27
2022-09-12T22:35:13.521Z,45.24
2022-09-12T22:37:40.634Z,44.55
2022-09-12T22:40:09.157Z,44.87
2022-09-12T22:42:36.323Z,45.04
2022-09-12T22:45:06.142Z,45.02
2022-09-12T22:47:33.512Z,44.75
2022-09-12T22:50:00.622Z,44.89
2022-09-12T22:52:27.779Z,44.91
2022-09-12T22:54:54.857Z,44.60
2022-09-12T22:57:21.946Z,45.16
2022-09-12T22:59:49.032Z,44.67
2022-09-12T23:02:17.562Z,44.54
2022-09-12T23:04:44.648Z,44.83
2022-09-12T23:07:11.761Z,44.59
2022-09-12T23:09:38.830Z,44.49
2022-09-12T23:12:06.189Z,44.58
2022-09-12T23:14:33.274Z,44.88
2022-09-12T23:17:00.355Z,44.49
2022-09-12T23:19:28.858Z,44.56
2022-09-12T23:21:55.931Z,44.45
2022-09-12T23:24:23.016Z,44.25
2022-09-12T23:26:50.090Z,44.45
2022-09-12T23:29:17.973Z,44.42
2022-09-12T23:31:45.086Z,44.50
2022-09-12T23:34:12.184Z,44.46
2022-09-12T23:36:40.586Z,44.16
2022-09-12T23:39:09.002Z,44.49
2022-09-12T23:41:36.123Z,44.32
2022-09-12T23:44:03.257Z,44.52
2022-09-12T23:46:30.370Z,44.30
2022-09-12T23:48:57.454Z,44.00
2022-09-12T23:51:24.554Z,44.13
2022-09-12T23:53:52.962Z,44.20
2022-09-12T23:56:20.071Z,44.43
2022-09-12T23:58:47.367Z,44.53
